LGSM

Details ICAO LGSM (SMI)
Name SAMOS
Region Greece
Timezone Europe/Athens (UTC+2.0)
Plans Departing 192
Arriving 269
Stats Elevation 19 ft / 6 m (AMSL)
Location 37.689012° 26.911123°
Runways 1
Magnetic Variation 4.802° E
Sunrise 2017-12-17 05:22:56 UTC / 2017-12-17 07:22:56 Local
Sunset 2017-12-17 14:56:42 UTC / 2017-12-17 16:56:42 Local
Advertisement - Login to hide

Runways

ID Width Length Bearing (true) Bearing (mag) Surface Threshold Offset Overrun Length
09 148 ft / 45 m 6,690 ft / 2,039 m 94.02° 89.22° Asphalt 230 ft / 70 m 0 ft / 0 m
27 148 ft / 45 m 6,690 ft / 2,039 m 274.03° 269.23° Asphalt 0 ft / 0 m 0 ft / 0 m

Map

Weather


0- 5 10 15 20 25 30 35+ Temperature / ° C

Clouds and Precipitation
Forecast for 2017-12-17 12:00 UTC. Updated an hour ago

Ground ~20,000 ft ~40,000 ft Winds

METAR

LGSM 170820Z 18018KT 9999 SCT018 SCT025 18/15 Q1013

TAF

Not found

Frequencies

Tower 124.10 MHz TWR
Approach 122.10 MHz APP
Tower 122.10 MHz TWR
Approach 124.10 MHz APP
Warning: Do not use this data for real-world aviation or navigation. No guarantee of current accuracy is given.